HAZ1605 ZUUU-ZPPP
Flight info
| Callsign | HAZ1605 |
|---|---|
| Flight time | 1h 6m |
| Altitude | 34100 |
| Route | LUVEN9Z LUVEN G212 NIXAS NIX1L |
| Aircraft | A339/H-SADE1E2E3GHIJ3J5M1P2RWXY/LB2D1 |
Departure
| Time | 2026-05-04 02:05 |
|---|---|
| Airport | Chengdu Shuangliu International Airport (ZUUU) |
Arrival
| Time | 2026-05-04 03:12 |
|---|---|
| Airport | Kunming Changshui International Airport (ZPPP) |
| Time | Latitude | Longitude | Altitude | Speed | Heading |
|---|---|---|---|---|---|
| 2026-05-04 01:40 | 30.57079 | 103.94888 | 1698 ft | 0 kts | 156° |
| 2026-05-04 01:53 | 30.57086 | 103.94885 | 1698 ft | 2 kts | 157° |
| 2026-05-04 01:53 | 30.57096 | 103.94880 | 1698 ft | 2 kts | 157° |
| 2026-05-04 01:53 | 30.57110 | 103.94873 | 1698 ft | 2 kts | 156° |
| 2026-05-04 01:53 | 30.57123 | 103.94866 | 1698 ft | 2 kts | 156° |
| 2026-05-04 01:54 | 30.57137 | 103.94859 | 1698 ft | 2 kts | 156° |
| 2026-05-04 01:54 | 30.57151 | 103.94852 | 1698 ft | 2 kts | 156° |
| 2026-05-04 01:54 | 30.57157 | 103.94849 | 1698 ft | 2 kts | 156° |
| 2026-05-04 01:54 | 30.57161 | 103.94847 | 1698 ft | 2 kts | 156° |
| 2026-05-04 01:55 | 30.57175 | 103.94840 | 1698 ft | 2 kts | 156° |
| 2026-05-04 01:55 | 30.57189 | 103.94833 | 1698 ft | 2 kts | 156° |
| 2026-05-04 01:55 | 30.57202 | 103.94827 | 1698 ft | 2 kts | 156° |
| 2026-05-04 01:55 | 30.57216 | 103.94820 | 1698 ft | 2 kts | 160° |
| 2026-05-04 01:56 | 30.57230 | 103.94815 | 1698 ft | 2 kts | 175° |
| 2026-05-04 01:56 | 30.57245 | 103.94815 | 1698 ft | 2 kts | 186° |
| 2026-05-04 01:56 | 30.57260 | 103.94818 | 1698 ft | 2 kts | 198° |
| 2026-05-04 01:56 | 30.57266 | 103.94821 | 1698 ft | 1 kts | 203° |
| 2026-05-04 01:57 | 30.57268 | 103.94822 | 1698 ft | 0 kts | 203° |
| 2026-05-04 01:59 | 30.57261 | 103.94819 | 1698 ft | 2 kts | 203° |
| 2026-05-04 02:00 | 30.57233 | 103.94805 | 1698 ft | 6 kts | 202° |
| 2026-05-04 02:00 | 30.57182 | 103.94782 | 1698 ft | 9 kts | 201° |
| 2026-05-04 02:00 | 30.57115 | 103.94751 | 1698 ft | 11 kts | 202° |
| 2026-05-04 02:00 | 30.57032 | 103.94714 | 1698 ft | 13 kts | 201° |
| 2026-05-04 02:01 | 30.56936 | 103.94687 | 1698 ft | 13 kts | 191° |
| 2026-05-04 02:01 | 30.56847 | 103.94655 | 1698 ft | 9 kts | 218° |
| 2026-05-04 02:01 | 30.56841 | 103.94573 | 1698 ft | 11 kts | 287° |
| 2026-05-04 02:01 | 30.56856 | 103.94482 | 1698 ft | 11 kts | 250° |
| 2026-05-04 02:02 | 30.56792 | 103.94421 | 1698 ft | 12 kts | 205° |
| 2026-05-04 02:02 | 30.56708 | 103.94379 | 1698 ft | 13 kts | 203° |
| 2026-05-04 02:02 | 30.56618 | 103.94338 | 1698 ft | 14 kts | 201° |
| 2026-05-04 02:02 | 30.56516 | 103.94291 | 1698 ft | 16 kts | 202° |
| 2026-05-04 02:03 | 30.56403 | 103.94240 | 1698 ft | 17 kts | 201° |
| 2026-05-04 02:03 | 30.56325 | 103.94193 | 1698 ft | 10 kts | 234° |
| 2026-05-04 02:03 | 30.56318 | 103.94112 | 1698 ft | 10 kts | 283° |
| 2026-05-04 02:03 | 30.56355 | 103.94042 | 1698 ft | 10 kts | 328° |
| 2026-05-04 02:04 | 30.56426 | 103.94038 | 1698 ft | 13 kts | 19° |
| 2026-05-04 02:04 | 30.56548 | 103.94095 | 1698 ft | 32 kts | 22° |
| 2026-05-04 02:04 | 30.56958 | 103.94284 | 1698 ft | 93 kts | 21° |
| 2026-05-04 02:04 | 30.57738 | 103.94648 | 1698 ft | 144 kts | 22° |
| 2026-05-04 02:05 | 30.58799 | 103.95144 | 1792 ft | 176 kts | 24° |
| 2026-05-04 02:05 | 30.59920 | 103.95653 | 2324 ft | 174 kts | 22° |
| 2026-05-04 02:05 | 30.61054 | 103.96170 | 2859 ft | 176 kts | 23° |
| 2026-05-04 02:05 | 30.62186 | 103.96703 | 3396 ft | 178 kts | 24° |
| 2026-05-04 02:06 | 30.63361 | 103.97257 | 3757 ft | 192 kts | 23° |
| 2026-05-04 02:06 | 30.64650 | 103.97864 | 4071 ft | 208 kts | 22° |
| 2026-05-04 02:06 | 30.66043 | 103.98515 | 4345 ft | 223 kts | 22° |
| 2026-05-04 02:06 | 30.67539 | 103.99213 | 4622 ft | 238 kts | 24° |
| 2026-05-04 02:07 | 30.68958 | 104.00280 | 4908 ft | 254 kts | 46° |
| 2026-05-04 02:07 | 30.70019 | 104.02008 | 5225 ft | 268 kts | 62° |
| 2026-05-04 02:07 | 30.70914 | 104.03948 | 5759 ft | 276 kts | 63° |
| 2026-05-04 02:07 | 30.71807 | 104.05920 | 6396 ft | 279 kts | 63° |
| 2026-05-04 02:08 | 30.72715 | 104.07904 | 7030 ft | 282 kts | 63° |
| 2026-05-04 02:08 | 30.73642 | 104.09908 | 7670 ft | 285 kts | 62° |
| 2026-05-04 02:08 | 30.74586 | 104.11935 | 8312 ft | 288 kts | 62° |
| 2026-05-04 02:08 | 30.75534 | 104.14005 | 8943 ft | 291 kts | 66° |
| 2026-05-04 02:09 | 30.75949 | 104.16300 | 9527 ft | 295 kts | 94° |
| 2026-05-04 02:09 | 30.75402 | 104.18569 | 10174 ft | 296 kts | 121° |
| 2026-05-04 02:09 | 30.74045 | 104.20346 | 10802 ft | 297 kts | 147° |
| 2026-05-04 02:09 | 30.72173 | 104.21248 | 11401 ft | 297 kts | 173° |
| 2026-05-04 02:10 | 30.70140 | 104.21116 | 12014 ft | 297 kts | 197° |
| 2026-05-04 02:10 | 30.68154 | 104.20367 | 12665 ft | 299 kts | 199° |
| 2026-05-04 02:10 | 30.66170 | 104.19604 | 13285 ft | 303 kts | 199° |
| 2026-05-04 02:10 | 30.64182 | 104.18850 | 13909 ft | 306 kts | 199° |
| 2026-05-04 02:11 | 30.62143 | 104.18087 | 14536 ft | 309 kts | 199° |
| 2026-05-04 02:11 | 30.60082 | 104.17322 | 15148 ft | 313 kts | 199° |
| 2026-05-04 02:11 | 30.58011 | 104.16555 | 15741 ft | 317 kts | 199° |
| 2026-05-04 02:11 | 30.55883 | 104.15771 | 16342 ft | 321 kts | 199° |
| 2026-05-04 02:12 | 30.53764 | 104.14992 | 16931 ft | 324 kts | 199° |
| 2026-05-04 02:12 | 30.51586 | 104.14191 | 17525 ft | 328 kts | 199° |
| 2026-05-04 02:12 | 30.49399 | 104.13387 | 18111 ft | 332 kts | 200° |
| 2026-05-04 02:12 | 30.47210 | 104.12564 | 18690 ft | 334 kts | 202° |
| 2026-05-04 02:13 | 30.45010 | 104.11585 | 19165 ft | 341 kts | 205° |
| 2026-05-04 02:13 | 30.42782 | 104.10541 | 19417 ft | 354 kts | 205° |
| 2026-05-04 02:13 | 30.40470 | 104.09452 | 19659 ft | 368 kts | 206° |
| 2026-05-04 02:13 | 30.38047 | 104.08315 | 19899 ft | 381 kts | 205° |
| 2026-05-04 02:14 | 30.35514 | 104.07129 | 20132 ft | 395 kts | 205° |
| 2026-05-04 02:14 | 30.32940 | 104.05930 | 20427 ft | 405 kts | 206° |
| 2026-05-04 02:14 | 30.30332 | 104.04720 | 20934 ft | 409 kts | 206° |
| 2026-05-04 02:14 | 30.27574 | 104.03709 | 21488 ft | 416 kts | 198° |
| 2026-05-04 02:15 | 30.24707 | 104.03182 | 22026 ft | 424 kts | 189° |
| 2026-05-04 02:15 | 30.21714 | 104.03119 | 22511 ft | 431 kts | 184° |
| 2026-05-04 02:15 | 30.18700 | 104.03229 | 22988 ft | 435 kts | 184° |
| 2026-05-04 02:15 | 30.15655 | 104.03365 | 23429 ft | 439 kts | 184° |
| 2026-05-04 02:16 | 30.12613 | 104.03500 | 23811 ft | 443 kts | 184° |
| 2026-05-04 02:16 | 30.09528 | 104.03626 | 24222 ft | 447 kts | 184° |
| 2026-05-04 02:16 | 30.06402 | 104.03750 | 24645 ft | 450 kts | 184° |
| 2026-05-04 02:16 | 30.03264 | 104.03872 | 25054 ft | 453 kts | 185° |
| 2026-05-04 02:17 | 30.00066 | 104.03995 | 25433 ft | 457 kts | 185° |
| 2026-05-04 02:17 | 29.96903 | 104.04115 | 25808 ft | 460 kts | 185° |
| 2026-05-04 02:17 | 29.93670 | 104.04237 | 26213 ft | 463 kts | 185° |
| 2026-05-04 02:17 | 29.90476 | 104.04357 | 26582 ft | 465 kts | 185° |
| 2026-05-04 02:18 | 29.87226 | 104.04479 | 26918 ft | 469 kts | 185° |
| 2026-05-04 02:18 | 29.83935 | 104.04601 | 27235 ft | 472 kts | 185° |
| 2026-05-04 02:18 | 29.80644 | 104.04726 | 27578 ft | 475 kts | 185° |
| 2026-05-04 02:18 | 29.77347 | 104.04817 | 27927 ft | 475 kts | 187° |
| 2026-05-04 02:19 | 29.74040 | 104.04736 | 28242 ft | 476 kts | 189° |
| 2026-05-04 02:19 | 29.70695 | 104.04607 | 28540 ft | 479 kts | 189° |
| 2026-05-04 02:19 | 29.67366 | 104.04474 | 28860 ft | 481 kts | 190° |
| 2026-05-04 02:19 | 29.64014 | 104.04340 | 29159 ft | 484 kts | 190° |
| 2026-05-04 02:20 | 29.60623 | 104.04204 | 29435 ft | 487 kts | 190° |
| 2026-05-04 02:20 | 29.57232 | 104.04068 | 29697 ft | 490 kts | 190° |
| 2026-05-04 02:20 | 29.53821 | 104.03933 | 29942 ft | 492 kts | 190° |
| 2026-05-04 02:20 | 29.50414 | 104.03798 | 30189 ft | 494 kts | 190° |
| 2026-05-04 02:21 | 29.46986 | 104.03665 | 30516 ft | 494 kts | 190° |
| 2026-05-04 02:21 | 29.43531 | 104.03532 | 30865 ft | 493 kts | 190° |
| 2026-05-04 02:21 | 29.40102 | 104.03400 | 31167 ft | 493 kts | 189° |
| 2026-05-04 02:21 | 29.36693 | 104.03383 | 31463 ft | 496 kts | 187° |
| 2026-05-04 02:22 | 29.33258 | 104.03430 | 31787 ft | 495 kts | 187° |
| 2026-05-04 02:22 | 29.29793 | 104.03483 | 32124 ft | 494 kts | 187° |
| 2026-05-04 02:22 | 29.26365 | 104.03534 | 32430 ft | 493 kts | 187° |
| 2026-05-04 02:22 | 29.22956 | 104.03584 | 32714 ft | 493 kts | 187° |
| 2026-05-04 02:23 | 29.19523 | 104.03634 | 33042 ft | 493 kts | 187° |
| 2026-05-04 02:23 | 29.16055 | 104.03683 | 33339 ft | 494 kts | 187° |
| 2026-05-04 02:23 | 29.12631 | 104.03731 | 33643 ft | 494 kts | 187° |
| 2026-05-04 02:23 | 29.09197 | 104.03779 | 33950 ft | 494 kts | 187° |
| 2026-05-04 02:24 | 29.05770 | 104.03825 | 34176 ft | 496 kts | 187° |
| 2026-05-04 02:24 | 29.02307 | 104.03873 | 34196 ft | 496 kts | 187° |
| 2026-05-04 02:24 | 28.95388 | 104.03970 | 34213 ft | 495 kts | 187° |
| 2026-05-04 02:25 | 28.88537 | 104.04067 | 34230 ft | 494 kts | 188° |
| 2026-05-04 02:25 | 28.84756 | 104.04118 | 34231 ft | 494 kts | 187° |
| 2026-05-04 02:26 | 28.77873 | 104.04211 | 34264 ft | 493 kts | 187° |
| 2026-05-04 02:26 | 28.71034 | 104.04305 | 34272 ft | 494 kts | 187° |
| 2026-05-04 02:27 | 28.64205 | 104.04118 | 34276 ft | 485 kts | 194° |
| 2026-05-04 02:27 | 28.57683 | 104.02691 | 34285 ft | 470 kts | 205° |
| 2026-05-04 02:28 | 28.51696 | 104.00084 | 34297 ft | 457 kts | 214° |
| 2026-05-04 02:28 | 28.46215 | 103.96510 | 34298 ft | 450 kts | 220° |
| 2026-05-04 02:29 | 28.40952 | 103.92785 | 34325 ft | 449 kts | 220° |
| 2026-05-04 02:29 | 28.35644 | 103.89030 | 34339 ft | 449 kts | 220° |
| 2026-05-04 02:30 | 28.30317 | 103.85278 | 34334 ft | 448 kts | 220° |
| 2026-05-04 02:30 | 28.25024 | 103.81558 | 34345 ft | 448 kts | 220° |
| 2026-05-04 02:31 | 28.19736 | 103.77846 | 34354 ft | 448 kts | 220° |
| 2026-05-04 02:31 | 28.14443 | 103.74135 | 34367 ft | 446 kts | 220° |
| 2026-05-04 02:32 | 28.09168 | 103.70441 | 34379 ft | 447 kts | 220° |
| 2026-05-04 02:32 | 28.03908 | 103.66761 | 34381 ft | 447 kts | 220° |
| 2026-05-04 02:33 | 27.98600 | 103.63052 | 34393 ft | 446 kts | 220° |
| 2026-05-04 02:33 | 27.93347 | 103.59386 | 34389 ft | 446 kts | 220° |
| 2026-05-04 02:34 | 27.88038 | 103.55686 | 34406 ft | 447 kts | 219° |
| 2026-05-04 02:34 | 27.82751 | 103.52005 | 34413 ft | 446 kts | 220° |
| 2026-05-04 02:35 | 27.77496 | 103.48350 | 34412 ft | 446 kts | 219° |
| 2026-05-04 02:35 | 27.72236 | 103.44694 | 34421 ft | 445 kts | 219° |
| 2026-05-04 02:36 | 27.66955 | 103.41029 | 34430 ft | 446 kts | 219° |
| 2026-05-04 02:36 | 27.61652 | 103.37352 | 34349 ft | 448 kts | 219° |
| 2026-05-04 02:37 | 27.59000 | 103.35514 | 34100 ft | 446 kts | 219° |
| 2026-05-04 02:37 | 27.56359 | 103.33684 | 33860 ft | 444 kts | 219° |
| 2026-05-04 02:37 | 27.53741 | 103.31873 | 33616 ft | 441 kts | 219° |
| 2026-05-04 02:37 | 27.51145 | 103.30079 | 33371 ft | 439 kts | 219° |
| 2026-05-04 02:38 | 27.48510 | 103.28281 | 33125 ft | 440 kts | 217° |
| 2026-05-04 02:38 | 27.45832 | 103.26618 | 32889 ft | 442 kts | 215° |
| 2026-05-04 02:38 | 27.43061 | 103.25082 | 32652 ft | 445 kts | 212° |
| 2026-05-04 02:38 | 27.40210 | 103.23684 | 32432 ft | 449 kts | 209° |
| 2026-05-04 02:39 | 27.37295 | 103.22388 | 32204 ft | 450 kts | 209° |
| 2026-05-04 02:39 | 27.34370 | 103.21086 | 31972 ft | 451 kts | 209° |
| 2026-05-04 02:39 | 27.31467 | 103.19795 | 31740 ft | 452 kts | 209° |
| 2026-05-04 02:39 | 27.28556 | 103.18502 | 31505 ft | 454 kts | 209° |
| 2026-05-04 02:40 | 27.25575 | 103.17182 | 31266 ft | 455 kts | 209° |
| 2026-05-04 02:40 | 27.22625 | 103.15878 | 31034 ft | 457 kts | 208° |
| 2026-05-04 02:40 | 27.19690 | 103.14583 | 30800 ft | 458 kts | 208° |
| 2026-05-04 02:40 | 27.16694 | 103.13261 | 30556 ft | 459 kts | 208° |
| 2026-05-04 02:41 | 27.13732 | 103.11955 | 30317 ft | 460 kts | 208° |
| 2026-05-04 02:41 | 27.10739 | 103.10635 | 30078 ft | 460 kts | 208° |
| 2026-05-04 02:41 | 27.07803 | 103.09341 | 29836 ft | 457 kts | 208° |
| 2026-05-04 02:41 | 27.04837 | 103.08034 | 29597 ft | 455 kts | 208° |
| 2026-05-04 02:42 | 27.01874 | 103.06730 | 29352 ft | 453 kts | 208° |
| 2026-05-04 02:42 | 26.98973 | 103.05451 | 29112 ft | 451 kts | 208° |
| 2026-05-04 02:42 | 26.96071 | 103.04174 | 28862 ft | 449 kts | 208° |
| 2026-05-04 02:42 | 26.93127 | 103.02879 | 28605 ft | 449 kts | 208° |
| 2026-05-04 02:43 | 26.90231 | 103.01604 | 28352 ft | 446 kts | 208° |
| 2026-05-04 02:43 | 26.87372 | 103.00346 | 28100 ft | 445 kts | 208° |
| 2026-05-04 02:43 | 26.84489 | 102.99079 | 27845 ft | 443 kts | 208° |
| 2026-05-04 02:43 | 26.81609 | 102.97813 | 27591 ft | 441 kts | 208° |
| 2026-05-04 02:44 | 26.78764 | 102.96564 | 27339 ft | 439 kts | 208° |
| 2026-05-04 02:44 | 26.75929 | 102.95319 | 27086 ft | 438 kts | 208° |
| 2026-05-04 02:44 | 26.73108 | 102.94078 | 26833 ft | 436 kts | 208° |
| 2026-05-04 02:44 | 26.70274 | 102.92836 | 26578 ft | 434 kts | 208° |
| 2026-05-04 02:45 | 26.67490 | 102.91617 | 26329 ft | 433 kts | 208° |
| 2026-05-04 02:45 | 26.64678 | 102.90389 | 26074 ft | 432 kts | 208° |
| 2026-05-04 02:45 | 26.61883 | 102.89169 | 25819 ft | 430 kts | 208° |
| 2026-05-04 02:45 | 26.59093 | 102.87952 | 25565 ft | 429 kts | 207° |
| 2026-05-04 02:46 | 26.56318 | 102.86741 | 25312 ft | 428 kts | 208° |
| 2026-05-04 02:46 | 26.53555 | 102.85535 | 25060 ft | 425 kts | 207° |
| 2026-05-04 02:46 | 26.50793 | 102.84329 | 24805 ft | 423 kts | 207° |
| 2026-05-04 02:46 | 26.48050 | 102.83132 | 24554 ft | 423 kts | 207° |
| 2026-05-04 02:47 | 26.45328 | 102.81944 | 24302 ft | 422 kts | 207° |
| 2026-05-04 02:47 | 26.42577 | 102.80743 | 24048 ft | 421 kts | 207° |
| 2026-05-04 02:47 | 26.39860 | 102.79559 | 23802 ft | 420 kts | 207° |
| 2026-05-04 02:47 | 26.37152 | 102.78380 | 23566 ft | 419 kts | 207° |
| 2026-05-04 02:48 | 26.34423 | 102.77191 | 23326 ft | 417 kts | 207° |
| 2026-05-04 02:48 | 26.31716 | 102.76012 | 23089 ft | 416 kts | 207° |
| 2026-05-04 02:48 | 26.29042 | 102.74848 | 22850 ft | 416 kts | 207° |
| 2026-05-04 02:48 | 26.26328 | 102.73666 | 22606 ft | 415 kts | 207° |
| 2026-05-04 02:49 | 26.23648 | 102.72502 | 22372 ft | 414 kts | 207° |
| 2026-05-04 02:49 | 26.20967 | 102.71339 | 22155 ft | 412 kts | 207° |
| 2026-05-04 02:49 | 26.18295 | 102.70220 | 21933 ft | 415 kts | 202° |
| 2026-05-04 02:49 | 26.15429 | 102.69584 | 21697 ft | 421 kts | 191° |
| 2026-05-04 02:50 | 26.12471 | 102.69593 | 21479 ft | 427 kts | 179° |
| 2026-05-04 02:50 | 26.09542 | 102.70069 | 21262 ft | 428 kts | 175° |
| 2026-05-04 02:50 | 26.06614 | 102.70621 | 21037 ft | 426 kts | 175° |
| 2026-05-04 02:50 | 26.03659 | 102.71185 | 20816 ft | 424 kts | 175° |
| 2026-05-04 02:51 | 26.00754 | 102.71731 | 20615 ft | 420 kts | 175° |
| 2026-05-04 02:51 | 25.97914 | 102.72256 | 20371 ft | 413 kts | 175° |
| 2026-05-04 02:51 | 25.95114 | 102.72765 | 20093 ft | 407 kts | 175° |
| 2026-05-04 02:51 | 25.92305 | 102.73272 | 19814 ft | 401 kts | 175° |
| 2026-05-04 02:52 | 25.89582 | 102.73762 | 19550 ft | 396 kts | 175° |
| 2026-05-04 02:52 | 25.86893 | 102.74353 | 19276 ft | 395 kts | 167° |
| 2026-05-04 02:52 | 25.84361 | 102.75597 | 19001 ft | 397 kts | 152° |
| 2026-05-04 02:52 | 25.82090 | 102.77307 | 18742 ft | 394 kts | 148° |
| 2026-05-04 02:53 | 25.79876 | 102.79094 | 18482 ft | 389 kts | 147° |
| 2026-05-04 02:53 | 25.77716 | 102.80835 | 18233 ft | 384 kts | 147° |
| 2026-05-04 02:53 | 25.75624 | 102.82675 | 17959 ft | 383 kts | 135° |
| 2026-05-04 02:53 | 25.74244 | 102.85181 | 17681 ft | 383 kts | 108° |
| 2026-05-04 02:54 | 25.73932 | 102.88058 | 17412 ft | 377 kts | 82° |
| 2026-05-04 02:54 | 25.74723 | 102.90756 | 17160 ft | 365 kts | 55° |
| 2026-05-04 02:54 | 25.76176 | 102.93045 | 16933 ft | 359 kts | 53° |
| 2026-05-04 02:54 | 25.77426 | 102.95389 | 16714 ft | 357 kts | 61° |
| 2026-05-04 02:55 | 25.79268 | 103.00442 | 16282 ft | 349 kts | 69° |
| 2026-05-04 02:55 | 25.79930 | 103.03030 | 16059 ft | 346 kts | 78° |
| 2026-05-04 02:55 | 25.80220 | 103.05653 | 15855 ft | 342 kts | 86° |
| 2026-05-04 02:56 | 25.80323 | 103.08234 | 15784 ft | 332 kts | 88° |
| 2026-05-04 02:56 | 25.80393 | 103.10756 | 15772 ft | 320 kts | 88° |
| 2026-05-04 02:56 | 25.80306 | 103.13203 | 15771 ft | 317 kts | 97° |
| 2026-05-04 02:56 | 25.79921 | 103.15597 | 15771 ft | 319 kts | 103° |
| 2026-05-04 02:57 | 25.79384 | 103.17992 | 15768 ft | 319 kts | 105° |
| 2026-05-04 02:57 | 25.78825 | 103.20369 | 15761 ft | 320 kts | 105° |
| 2026-05-04 02:57 | 25.78125 | 103.22727 | 15756 ft | 319 kts | 114° |
| 2026-05-04 02:57 | 25.77152 | 103.24909 | 15752 ft | 318 kts | 121° |
| 2026-05-04 02:58 | 25.76004 | 103.27029 | 15749 ft | 318 kts | 129° |
| 2026-05-04 02:58 | 25.74401 | 103.28603 | 15737 ft | 308 kts | 160° |
| 2026-05-04 02:58 | 25.72361 | 103.29076 | 15700 ft | 295 kts | 189° |
| 2026-05-04 02:58 | 25.70435 | 103.28468 | 15470 ft | 283 kts | 216° |
| 2026-05-04 02:59 | 25.68902 | 103.27176 | 15281 ft | 274 kts | 224° |
| 2026-05-04 02:59 | 25.67452 | 103.25841 | 15099 ft | 270 kts | 224° |
| 2026-05-04 02:59 | 25.66017 | 103.24539 | 14926 ft | 265 kts | 223° |
| 2026-05-04 02:59 | 25.64596 | 103.23267 | 14735 ft | 261 kts | 223° |
| 2026-05-04 03:00 | 25.63183 | 103.22015 | 14527 ft | 258 kts | 223° |
| 2026-05-04 03:00 | 25.61791 | 103.20786 | 14316 ft | 254 kts | 223° |
| 2026-05-04 03:00 | 25.60412 | 103.19571 | 14107 ft | 250 kts | 223° |
| 2026-05-04 03:00 | 25.59060 | 103.18385 | 13906 ft | 246 kts | 223° |
| 2026-05-04 03:01 | 25.57735 | 103.17221 | 13716 ft | 241 kts | 223° |
| 2026-05-04 03:01 | 25.56429 | 103.16078 | 13531 ft | 237 kts | 223° |
| 2026-05-04 03:01 | 25.55137 | 103.14949 | 13365 ft | 233 kts | 223° |
| 2026-05-04 03:01 | 25.53885 | 103.13854 | 13191 ft | 228 kts | 223° |
| 2026-05-04 03:02 | 25.52667 | 103.12785 | 13033 ft | 222 kts | 222° |
| 2026-05-04 03:02 | 25.51477 | 103.11748 | 13026 ft | 210 kts | 220° |
| 2026-05-04 03:02 | 25.50159 | 103.11043 | 13007 ft | 215 kts | 195° |
| 2026-05-04 03:02 | 25.48639 | 103.11094 | 13024 ft | 226 kts | 168° |
| 2026-05-04 03:03 | 25.47245 | 103.11954 | 12951 ft | 236 kts | 139° |
| 2026-05-04 03:03 | 25.46173 | 103.13335 | 12855 ft | 237 kts | 131° |
| 2026-05-04 03:03 | 25.45176 | 103.14771 | 12680 ft | 235 kts | 130° |
| 2026-05-04 03:03 | 25.44191 | 103.16196 | 12436 ft | 233 kts | 130° |
| 2026-05-04 03:04 | 25.43105 | 103.17505 | 12140 ft | 226 kts | 150° |
| 2026-05-04 03:04 | 25.41696 | 103.18081 | 11800 ft | 214 kts | 181° |
| 2026-05-04 03:04 | 25.40265 | 103.17834 | 11519 ft | 207 kts | 208° |
| 2026-05-04 03:04 | 25.39066 | 103.16976 | 11305 ft | 203 kts | 221° |
| 2026-05-04 03:05 | 25.37966 | 103.15992 | 11138 ft | 203 kts | 222° |
| 2026-05-04 03:05 | 25.36885 | 103.14996 | 10920 ft | 203 kts | 223° |
| 2026-05-04 03:05 | 25.35796 | 103.14001 | 10847 ft | 202 kts | 222° |
| 2026-05-04 03:05 | 25.34697 | 103.13011 | 10837 ft | 203 kts | 222° |
| 2026-05-04 03:06 | 25.33604 | 103.12041 | 10838 ft | 203 kts | 221° |
| 2026-05-04 03:06 | 25.32492 | 103.11063 | 10836 ft | 203 kts | 221° |
| 2026-05-04 03:06 | 25.31388 | 103.10102 | 10837 ft | 202 kts | 221° |
| 2026-05-04 03:06 | 25.30280 | 103.09140 | 10838 ft | 203 kts | 221° |
| 2026-05-04 03:07 | 25.29164 | 103.08172 | 10816 ft | 203 kts | 221° |
| 2026-05-04 03:07 | 25.28052 | 103.07208 | 10604 ft | 204 kts | 220° |
| 2026-05-04 03:07 | 25.26943 | 103.06247 | 10336 ft | 198 kts | 220° |
| 2026-05-04 03:07 | 25.25874 | 103.05319 | 10087 ft | 191 kts | 220° |
| 2026-05-04 03:08 | 25.24856 | 103.04436 | 9833 ft | 184 kts | 220° |
| 2026-05-04 03:08 | 25.23867 | 103.03575 | 9594 ft | 176 kts | 219° |
| 2026-05-04 03:08 | 25.22928 | 103.02760 | 9369 ft | 168 kts | 220° |
| 2026-05-04 03:08 | 25.22041 | 103.01988 | 9155 ft | 160 kts | 220° |
| 2026-05-04 03:09 | 25.21160 | 103.01221 | 8970 ft | 162 kts | 220° |
| 2026-05-04 03:09 | 25.20275 | 103.00449 | 8774 ft | 163 kts | 220° |
| 2026-05-04 03:09 | 25.19388 | 102.99677 | 8567 ft | 162 kts | 219° |
| 2026-05-04 03:09 | 25.18494 | 102.98900 | 8359 ft | 164 kts | 220° |
| 2026-05-04 03:10 | 25.17603 | 102.98124 | 8139 ft | 164 kts | 220° |
| 2026-05-04 03:10 | 25.16706 | 102.97343 | 7920 ft | 164 kts | 219° |
| 2026-05-04 03:10 | 25.15816 | 102.96568 | 7701 ft | 163 kts | 219° |
| 2026-05-04 03:10 | 25.14920 | 102.95788 | 7488 ft | 164 kts | 219° |
| 2026-05-04 03:11 | 25.14022 | 102.95007 | 7276 ft | 164 kts | 219° |
| 2026-05-04 03:11 | 25.13129 | 102.94216 | 7072 ft | 164 kts | 218° |
| 2026-05-04 03:11 | 25.12224 | 102.93428 | 6925 ft | 161 kts | 218° |
| 2026-05-04 03:11 | 25.11546 | 102.92857 | 6920 ft | 80 kts | 220° |
| 2026-05-04 03:12 | 25.11221 | 102.92645 | 6920 ft | 41 kts | 189° |
| 2026-05-04 03:12 | 25.11124 | 102.92622 | 6920 ft | 0 kts | 194° |
| 2026-05-04 03:12 | 25.11112 | 102.92618 | 6920 ft | 3 kts | 194° |
| 2026-05-04 03:13 | 25.11105 | 102.92616 | 6920 ft | 0 kts | 193° |